sensor_id;sensor_type;location;lat;lon;timestamp;P1;durP1;ratioP1;P2;durP2;ratioP2
46589;SDS011;32313;48.722;9.362;2022-08-18T00:00:00;24.97;;;22.30;;
46589;SDS011;32313;48.722;9.362;2022-08-18T00:02:27;24.47;;;21.90;;
46589;SDS011;32313;48.722;9.362;2022-08-18T00:04:54;22.77;;;20.47;;
46589;SDS011;32313;48.722;9.362;2022-08-18T00:07:22;22.40;;;20.03;;
46589;SDS011;32313;48.722;9.362;2022-08-18T00:09:51;24.00;;;21.63;;
46589;SDS011;32313;48.722;9.362;2022-08-18T00:12:18;25.23;;;22.67;;
46589;SDS011;32313;48.722;9.362;2022-08-18T00:14:52;21.70;;;19.60;;
46589;SDS011;32313;48.722;9.362;2022-08-18T00:17:19;21.23;;;19.23;;
46589;SDS011;32313;48.722;9.362;2022-08-18T00:19:45;25.20;;;22.43;;
46589;SDS011;32313;48.722;9.362;2022-08-18T00:22:12;23.43;;;20.93;;
46589;SDS011;32313;48.722;9.362;2022-08-18T00:24:40;24.17;;;21.63;;
46589;SDS011;32313;48.722;9.362;2022-08-18T00:27:06;25.30;;;22.57;;
46589;SDS011;32313;48.722;9.362;2022-08-18T00:29:34;23.87;;;21.47;;
46589;SDS011;32313;48.722;9.362;2022-08-18T00:32:09;26.97;;;24.10;;
46589;SDS011;32313;48.722;9.362;2022-08-18T00:34:39;24.93;;;22.43;;
46589;SDS011;32313;48.722;9.362;2022-08-18T00:37:05;21.63;;;19.53;;
46589;SDS011;32313;48.722;9.362;2022-08-18T00:39:31;23.40;;;21.30;;
46589;SDS011;32313;48.722;9.362;2022-08-18T00:41:58;22.70;;;20.50;;
46589;SDS011;32313;48.722;9.362;2022-08-18T00:44:24;22.23;;;20.23;;
46589;SDS011;32313;48.722;9.362;2022-08-18T00:46:50;21.90;;;19.70;;
46589;SDS011;32313;48.722;9.362;2022-08-18T00:49:16;19.13;;;17.33;;
46589;SDS011;32313;48.722;9.362;2022-08-18T00:51:44;20.50;;;18.53;;
46589;SDS011;32313;48.722;9.362;2022-08-18T00:54:18;18.73;;;16.93;;
46589;SDS011;32313;48.722;9.362;2022-08-18T00:56:48;20.07;;;17.93;;
46589;SDS011;32313;48.722;9.362;2022-08-18T00:59:20;20.50;;;18.60;;
46589;SDS011;32313;48.722;9.362;2022-08-18T01:01:56;19.53;;;17.77;;
46589;SDS011;32313;48.722;9.362;2022-08-18T01:04:28;20.10;;;18.10;;
46589;SDS011;32313;48.722;9.362;2022-08-18T01:07:07;19.63;;;17.67;;
46589;SDS011;32313;48.722;9.362;2022-08-18T01:09:45;17.80;;;16.30;;
46589;SDS011;32313;48.722;9.362;2022-08-18T01:12:15;17.70;;;16.00;;
46589;SDS011;32313;48.722;9.362;2022-08-18T01:14:41;16.87;;;15.37;;
46589;SDS011;32313;48.722;9.362;2022-08-18T01:17:07;16.70;;;15.23;;
46589;SDS011;32313;48.722;9.362;2022-08-18T01:19:52;15.67;;;14.27;;
46589;SDS011;32313;48.722;9.362;2022-08-18T01:25:14;16.80;;;15.30;;
46589;SDS011;32313;48.722;9.362;2022-08-18T01:28:02;16.80;;;15.20;;
46589;SDS011;32313;48.722;9.362;2022-08-18T01:30:29;17.43;;;15.83;;
46589;SDS011;32313;48.722;9.362;2022-08-18T01:32:55;18.30;;;16.60;;
46589;SDS011;32313;48.722;9.362;2022-08-18T01:35:23;17.80;;;16.33;;
46589;SDS011;32313;48.722;9.362;2022-08-18T01:37:50;21.03;;;19.03;;
46589;SDS011;32313;48.722;9.362;2022-08-18T01:40:18;20.40;;;18.47;;
46589;SDS011;32313;48.722;9.362;2022-08-18T01:42:45;16.03;;;14.53;;
46589;SDS011;32313;48.722;9.362;2022-08-18T01:45:12;17.40;;;15.83;;
46589;SDS011;32313;48.722;9.362;2022-08-18T01:47:40;16.33;;;14.63;;
46589;SDS011;32313;48.722;9.362;2022-08-18T01:50:06;19.13;;;17.33;;
46589;SDS011;32313;48.722;9.362;2022-08-18T01:52:35;17.30;;;15.80;;
46589;SDS011;32313;48.722;9.362;2022-08-18T01:55:01;16.60;;;15.20;;
46589;SDS011;32313;48.722;9.362;2022-08-18T01:57:27;16.17;;;14.67;;
46589;SDS011;32313;48.722;9.362;2022-08-18T01:59:54;15.70;;;14.37;;
46589;SDS011;32313;48.722;9.362;2022-08-18T02:02:24;15.20;;;13.63;;
46589;SDS011;32313;48.722;9.362;2022-08-18T02:04:52;15.13;;;13.73;;
46589;SDS011;32313;48.722;9.362;2022-08-18T02:07:23;15.10;;;13.70;;
46589;SDS011;32313;48.722;9.362;2022-08-18T02:09:49;15.30;;;14.00;;
46589;SDS011;32313;48.722;9.362;2022-08-18T02:12:15;14.03;;;12.87;;
46589;SDS011;32313;48.722;9.362;2022-08-18T02:14:40;16.57;;;15.07;;
46589;SDS011;32313;48.722;9.362;2022-08-18T02:17:07;15.87;;;14.37;;
46589;SDS011;32313;48.722;9.362;2022-08-18T02:19:44;16.57;;;15.17;;
46589;SDS011;32313;48.722;9.362;2022-08-18T02:22:18;17.17;;;15.47;;
46589;SDS011;32313;48.722;9.362;2022-08-18T02:24:45;16.47;;;14.93;;
46589;SDS011;32313;48.722;9.362;2022-08-18T02:27:12;15.63;;;14.27;;
46589;SDS011;32313;48.722;9.362;2022-08-18T02:29:39;17.67;;;16.07;;
46589;SDS011;32313;48.722;9.362;2022-08-18T02:32:05;14.90;;;13.63;;
46589;SDS011;32313;48.722;9.362;2022-08-18T02:34:32;15.97;;;14.53;;
46589;SDS011;32313;48.722;9.362;2022-08-18T02:36:59;15.73;;;14.43;;
46589;SDS011;32313;48.722;9.362;2022-08-18T02:39:25;18.33;;;16.77;;
46589;SDS011;32313;48.722;9.362;2022-08-18T02:41:51;19.73;;;17.93;;
46589;SDS011;32313;48.722;9.362;2022-08-18T02:44:17;19.97;;;18.27;;
46589;SDS011;32313;48.722;9.362;2022-08-18T02:46:43;18.30;;;16.80;;
46589;SDS011;32313;48.722;9.362;2022-08-18T02:49:09;23.03;;;20.73;;
46589;SDS011;32313;48.722;9.362;2022-08-18T02:51:34;23.90;;;21.60;;
46589;SDS011;32313;48.722;9.362;2022-08-18T02:54:00;24.87;;;22.40;;
46589;SDS011;32313;48.722;9.362;2022-08-18T02:56:27;18.70;;;16.87;;
46589;SDS011;32313;48.722;9.362;2022-08-18T02:58:55;22.13;;;20.07;;
46589;SDS011;32313;48.722;9.362;2022-08-18T03:01:26;20.00;;;18.20;;
46589;SDS011;32313;48.722;9.362;2022-08-18T03:03:55;23.17;;;20.80;;
46589;SDS011;32313;48.722;9.362;2022-08-18T03:06:22;23.27;;;21.17;;
46589;SDS011;32313;48.722;9.362;2022-08-18T03:08:49;22.60;;;20.47;;
46589;SDS011;32313;48.722;9.362;2022-08-18T03:11:16;20.73;;;18.57;;
46589;SDS011;32313;48.722;9.362;2022-08-18T03:13:44;23.70;;;21.37;;
46589;SDS011;32313;48.722;9.362;2022-08-18T03:16:11;21.97;;;19.87;;
46589;SDS011;32313;48.722;9.362;2022-08-18T03:18:38;24.23;;;21.77;;
46589;SDS011;32313;48.722;9.362;2022-08-18T03:21:10;17.93;;;16.27;;
46589;SDS011;32313;48.722;9.362;2022-08-18T03:23:38;19.73;;;17.87;;
46589;SDS011;32313;48.722;9.362;2022-08-18T03:26:05;26.37;;;23.53;;
46589;SDS011;32313;48.722;9.362;2022-08-18T03:28:35;24.43;;;22.10;;
46589;SDS011;32313;48.722;9.362;2022-08-18T03:31:02;23.90;;;21.40;;
46589;SDS011;32313;48.722;9.362;2022-08-18T03:33:27;23.27;;;20.90;;
46589;SDS011;32313;48.722;9.362;2022-08-18T03:35:53;20.90;;;18.90;;
46589;SDS011;32313;48.722;9.362;2022-08-18T03:38:19;22.90;;;20.60;;
46589;SDS011;32313;48.722;9.362;2022-08-18T03:40:49;25.83;;;22.53;;
46589;SDS011;32313;48.722;9.362;2022-08-18T03:43:18;23.73;;;21.40;;
46589;SDS011;32313;48.722;9.362;2022-08-18T03:45:44;24.83;;;22.23;;
46589;SDS011;32313;48.722;9.362;2022-08-18T03:48:10;21.60;;;19.60;;
46589;SDS011;32313;48.722;9.362;2022-08-18T03:50:36;28.07;;;24.90;;
46589;SDS011;32313;48.722;9.362;2022-08-18T03:53:02;28.57;;;25.57;;
46589;SDS011;32313;48.722;9.362;2022-08-18T03:55:29;26.10;;;23.33;;
46589;SDS011;32313;48.722;9.362;2022-08-18T03:57:57;24.67;;;22.47;;
46589;SDS011;32313;48.722;9.362;2022-08-18T04:00:23;23.60;;;21.30;;
46589;SDS011;32313;48.722;9.362;2022-08-18T04:02:51;26.70;;;24.17;;
46589;SDS011;32313;48.722;9.362;2022-08-18T04:05:17;32.97;;;26.93;;
46589;SDS011;32313;48.722;9.362;2022-08-18T04:07:42;31.00;;;26.13;;
46589;SDS011;32313;48.722;9.362;2022-08-18T04:10:08;27.67;;;24.70;;
46589;SDS011;32313;48.722;9.362;2022-08-18T04:12:34;28.17;;;25.17;;
46589;SDS011;32313;48.722;9.362;2022-08-18T04:15:02;32.43;;;27.50;;
46589;SDS011;32313;48.722;9.362;2022-08-18T04:17:28;22.97;;;20.40;;
46589;SDS011;32313;48.722;9.362;2022-08-18T04:19:55;26.43;;;23.67;;
46589;SDS011;32313;48.722;9.362;2022-08-18T04:22:21;26.43;;;23.73;;
46589;SDS011;32313;48.722;9.362;2022-08-18T04:24:48;26.77;;;23.87;;
46589;SDS011;32313;48.722;9.362;2022-08-18T04:27:14;29.73;;;24.70;;
46589;SDS011;32313;48.722;9.362;2022-08-18T04:29:41;30.27;;;25.93;;
46589;SDS011;32313;48.722;9.362;2022-08-18T04:32:06;21.97;;;19.87;;
46589;SDS011;32313;48.722;9.362;2022-08-18T04:34:32;25.60;;;22.97;;
46589;SDS011;32313;48.722;9.362;2022-08-18T04:36:59;19.27;;;17.57;;
46589;SDS011;32313;48.722;9.362;2022-08-18T04:39:26;22.63;;;20.53;;
46589;SDS011;32313;48.722;9.362;2022-08-18T04:41:52;23.70;;;21.33;;
46589;SDS011;32313;48.722;9.362;2022-08-18T04:44:18;22.73;;;20.63;;
46589;SDS011;32313;48.722;9.362;2022-08-18T04:46:50;25.03;;;22.37;;
46589;SDS011;32313;48.722;9.362;2022-08-18T04:49:18;22.97;;;20.53;;
46589;SDS011;32313;48.722;9.362;2022-08-18T04:51:46;21.30;;;19.30;;
46589;SDS011;32313;48.722;9.362;2022-08-18T04:54:35;21.77;;;19.87;;
46589;SDS011;32313;48.722;9.362;2022-08-18T04:57:10;24.30;;;21.80;;
46589;SDS011;32313;48.722;9.362;2022-08-18T04:59:37;20.63;;;18.63;;
46589;SDS011;32313;48.722;9.362;2022-08-18T05:02:06;22.40;;;20.30;;
46589;SDS011;32313;48.722;9.362;2022-08-18T05:04:33;18.30;;;16.70;;
46589;SDS011;32313;48.722;9.362;2022-08-18T05:07:01;18.57;;;16.93;;
46589;SDS011;32313;48.722;9.362;2022-08-18T05:09:28;17.33;;;15.63;;
46589;SDS011;32313;48.722;9.362;2022-08-18T05:11:54;16.77;;;15.30;;
46589;SDS011;32313;48.722;9.362;2022-08-18T05:14:20;19.30;;;17.50;;
46589;SDS011;32313;48.722;9.362;2022-08-18T05:16:46;19.47;;;17.60;;
46589;SDS011;32313;48.722;9.362;2022-08-18T05:19:13;19.07;;;17.17;;
46589;SDS011;32313;48.722;9.362;2022-08-18T05:21:41;15.60;;;14.23;;
46589;SDS011;32313;48.722;9.362;2022-08-18T05:24:07;16.03;;;14.50;;
46589;SDS011;32313;48.722;9.362;2022-08-18T05:26:34;14.53;;;13.27;;
46589;SDS011;32313;48.722;9.362;2022-08-18T05:29:00;13.67;;;12.47;;
46589;SDS011;32313;48.722;9.362;2022-08-18T05:31:27;15.23;;;13.80;;
46589;SDS011;32313;48.722;9.362;2022-08-18T05:33:54;13.20;;;11.90;;
46589;SDS011;32313;48.722;9.362;2022-08-18T05:38:53;15.70;;;14.20;;
46589;SDS011;32313;48.722;9.362;2022-08-18T05:41:23;14.40;;;13.17;;
46589;SDS011;32313;48.722;9.362;2022-08-18T05:43:52;14.60;;;13.30;;
46589;SDS011;32313;48.722;9.362;2022-08-18T05:46:18;14.83;;;13.50;;
46589;SDS011;32313;48.722;9.362;2022-08-18T05:48:49;14.13;;;12.93;;
46589;SDS011;32313;48.722;9.362;2022-08-18T05:51:16;15.43;;;13.93;;
46589;SDS011;32313;48.722;9.362;2022-08-18T05:53:47;13.80;;;12.67;;
46589;SDS011;32313;48.722;9.362;2022-08-18T05:56:33;13.57;;;12.23;;
46589;SDS011;32313;48.722;9.362;2022-08-18T05:59:33;14.17;;;12.87;;
46589;SDS011;32313;48.722;9.362;2022-08-18T06:07:07;11.67;;;10.60;;
46589;SDS011;32313;48.722;9.362;2022-08-18T06:12:21;11.17;;;10.27;;
46589;SDS011;32313;48.722;9.362;2022-08-18T06:14:48;11.07;;;10.20;;
46589;SDS011;32313;48.722;9.362;2022-08-18T06:17:29;10.57;;;9.73;;
46589;SDS011;32313;48.722;9.362;2022-08-18T06:20:48;11.00;;;10.07;;
46589;SDS011;32313;48.722;9.362;2022-08-18T06:23:17;10.10;;;9.30;;
46589;SDS011;32313;48.722;9.362;2022-08-18T06:29:01;10.00;;;9.10;;
46589;SDS011;32313;48.722;9.362;2022-08-18T06:37:32;9.43;;;8.53;;
46589;SDS011;32313;48.722;9.362;2022-08-18T06:40:24;9.23;;;8.43;;
46589;SDS011;32313;48.722;9.362;2022-08-18T06:42:49;10.37;;;9.50;;
46589;SDS011;32313;48.722;9.362;2022-08-18T06:45:15;9.97;;;9.07;;
46589;SDS011;32313;48.722;9.362;2022-08-18T06:50:27;9.40;;;8.53;;
46589;SDS011;32313;48.722;9.362;2022-08-18T06:53:02;10.30;;;9.23;;
46589;SDS011;32313;48.722;9.362;2022-08-18T06:55:31;9.53;;;8.73;;
46589;SDS011;32313;48.722;9.362;2022-08-18T06:58:00;9.13;;;8.23;;
46589;SDS011;32313;48.722;9.362;2022-08-18T07:00:31;9.90;;;8.90;;
46589;SDS011;32313;48.722;9.362;2022-08-18T07:03:00;9.30;;;8.60;;
46589;SDS011;32313;48.722;9.362;2022-08-18T07:05:35;9.47;;;8.53;;
46589;SDS011;32313;48.722;9.362;2022-08-18T07:10:41;9.43;;;8.53;;
46589;SDS011;32313;48.722;9.362;2022-08-18T07:15:38;9.57;;;8.70;;
46589;SDS011;32313;48.722;9.362;2022-08-18T07:18:05;9.10;;;8.30;;
46589;SDS011;32313;48.722;9.362;2022-08-18T07:20:46;9.43;;;8.37;;
46589;SDS011;32313;48.722;9.362;2022-08-18T07:23:25;9.20;;;8.40;;
46589;SDS011;32313;48.722;9.362;2022-08-18T07:26:13;9.50;;;8.60;;
46589;SDS011;32313;48.722;9.362;2022-08-18T07:28:44;8.87;;;8.17;;
46589;SDS011;32313;48.722;9.362;2022-08-18T07:36:31;8.83;;;8.07;;
46589;SDS011;32313;48.722;9.362;2022-08-18T07:39:07;10.73;;;7.93;;
46589;SDS011;32313;48.722;9.362;2022-08-18T07:41:41;8.70;;;7.97;;
46589;SDS011;32313;48.722;9.362;2022-08-18T07:47:03;12.27;;;9.63;;
46589;SDS011;32313;48.722;9.362;2022-08-18T07:49:37;10.07;;;8.93;;
46589;SDS011;32313;48.722;9.362;2022-08-18T07:52:07;10.63;;;9.10;;
46589;SDS011;32313;48.722;9.362;2022-08-18T07:54:59;9.67;;;8.87;;
46589;SDS011;32313;48.722;9.362;2022-08-18T07:57:46;10.60;;;9.60;;
46589;SDS011;32313;48.722;9.362;2022-08-18T08:00:53;10.77;;;9.70;;
46589;SDS011;32313;48.722;9.362;2022-08-18T08:14:00;10.50;;;9.57;;
46589;SDS011;32313;48.722;9.362;2022-08-18T08:22:10;11.00;;;10.10;;
46589;SDS011;32313;48.722;9.362;2022-08-18T08:24:41;10.27;;;9.33;;
46589;SDS011;32313;48.722;9.362;2022-08-18T08:27:11;10.07;;;9.27;;
46589;SDS011;32313;48.722;9.362;2022-08-18T08:32:40;13.30;;;10.23;;
46589;SDS011;32313;48.722;9.362;2022-08-18T08:39:03;10.60;;;9.70;;
46589;SDS011;32313;48.722;9.362;2022-08-18T08:41:12;10.63;;;9.57;;
46589;SDS011;32313;48.722;9.362;2022-08-18T08:43:52;9.63;;;8.67;;
46589;SDS011;32313;48.722;9.362;2022-08-18T08:46:30;9.40;;;8.50;;
46589;SDS011;32313;48.722;9.362;2022-08-18T08:49:07;9.97;;;9.17;;
46589;SDS011;32313;48.722;9.362;2022-08-18T08:51:43;9.13;;;8.33;;
46589;SDS011;32313;48.722;9.362;2022-08-18T08:54:18;9.23;;;8.13;;
46589;SDS011;32313;48.722;9.362;2022-08-18T08:56:48;8.60;;;7.90;;
46589;SDS011;32313;48.722;9.362;2022-08-18T08:59:17;9.63;;;7.53;;
46589;SDS011;32313;48.722;9.362;2022-08-18T09:09:50;8.00;;;7.30;;
46589;SDS011;32313;48.722;9.362;2022-08-18T09:22:00;9.43;;;8.43;;
46589;SDS011;32313;48.722;9.362;2022-08-18T09:24:30;8.60;;;7.80;;
46589;SDS011;32313;48.722;9.362;2022-08-18T09:30:06;9.40;;;8.27;;
46589;SDS011;32313;48.722;9.362;2022-08-18T09:36:28;7.80;;;7.10;;
46589;SDS011;32313;48.722;9.362;2022-08-18T09:38:33;8.43;;;6.87;;
46589;SDS011;32313;48.722;9.362;2022-08-18T09:41:25;8.13;;;7.33;;
46589;SDS011;32313;48.722;9.362;2022-08-18T09:44:08;9.70;;;7.30;;
46589;SDS011;32313;48.722;9.362;2022-08-18T09:51:52;9.70;;;7.90;;
46589;SDS011;32313;48.722;9.362;2022-08-18T09:54:20;7.37;;;6.70;;
46589;SDS011;32313;48.722;9.362;2022-08-18T10:04:29;6.40;;;5.80;;
46589;SDS011;32313;48.722;9.362;2022-08-18T10:10:29;8.80;;;7.93;;
46589;SDS011;32313;48.722;9.362;2022-08-18T10:18:41;8.17;;;7.47;;
46589;SDS011;32313;48.722;9.362;2022-08-18T10:21:15;7.83;;;7.13;;
46589;SDS011;32313;48.722;9.362;2022-08-18T10:23:58;7.93;;;7.13;;
46589;SDS011;32313;48.722;9.362;2022-08-18T10:29:06;8.93;;;7.70;;
46589;SDS011;32313;48.722;9.362;2022-08-18T10:42:23;7.57;;;6.88;;
46589;SDS011;32313;48.722;9.362;2022-08-18T10:53:46;6.63;;;6.03;;
46589;SDS011;32313;48.722;9.362;2022-08-18T10:56:32;6.18;;;5.55;;
46589;SDS011;32313;48.722;9.362;2022-08-18T11:01:42;7.63;;;6.85;;
46589;SDS011;32313;48.722;9.362;2022-08-18T11:04:23;6.85;;;6.13;;
46589;SDS011;32313;48.722;9.362;2022-08-18T11:06:56;5.85;;;5.28;;
46589;SDS011;32313;48.722;9.362;2022-08-18T11:09:29;7.90;;;6.80;;
46589;SDS011;32313;48.722;9.362;2022-08-18T11:11:57;7.25;;;6.57;;
46589;SDS011;32313;48.722;9.362;2022-08-18T11:14:42;6.82;;;6.13;;
46589;SDS011;32313;48.722;9.362;2022-08-18T11:20:08;6.22;;;5.63;;
46589;SDS011;32313;48.722;9.362;2022-08-18T11:22:37;5.80;;;5.28;;
46589;SDS011;32313;48.722;9.362;2022-08-18T11:25:22;5.18;;;4.60;;
46589;SDS011;32313;48.722;9.362;2022-08-18T11:27:49;6.50;;;5.80;;
46589;SDS011;32313;48.722;9.362;2022-08-18T11:30:15;7.15;;;5.38;;
46589;SDS011;32313;48.722;9.362;2022-08-18T11:32:50;5.78;;;5.15;;
46589;SDS011;32313;48.722;9.362;2022-08-18T11:35:20;6.30;;;5.80;;
46589;SDS011;32313;48.722;9.362;2022-08-18T11:37:53;5.78;;;5.10;;
46589;SDS011;32313;48.722;9.362;2022-08-18T11:40:25;7.10;;;6.40;;
46589;SDS011;32313;48.722;9.362;2022-08-18T11:43:10;6.10;;;5.50;;
46589;SDS011;32313;48.722;9.362;2022-08-18T11:56:33;6.15;;;5.60;;
46589;SDS011;32313;48.722;9.362;2022-08-18T11:59:02;7.20;;;6.50;;
46589;SDS011;32313;48.722;9.362;2022-08-18T12:06:55;6.68;;;6.18;;
46589;SDS011;32313;48.722;9.362;2022-08-18T12:17:19;7.43;;;6.30;;
46589;SDS011;32313;48.722;9.362;2022-08-18T12:19:45;6.47;;;5.97;;
46589;SDS011;32313;48.722;9.362;2022-08-18T12:22:15;7.95;;;6.00;;
46589;SDS011;32313;48.722;9.362;2022-08-18T12:24:46;6.28;;;5.68;;
46589;SDS011;32313;48.722;9.362;2022-08-18T12:27:13;5.57;;;5.00;;
46589;SDS011;32313;48.722;9.362;2022-08-18T12:29:40;6.30;;;5.80;;
46589;SDS011;32313;48.722;9.362;2022-08-18T12:32:06;6.50;;;5.93;;
46589;SDS011;32313;48.722;9.362;2022-08-18T12:34:33;6.28;;;5.70;;
46589;SDS011;32313;48.722;9.362;2022-08-18T12:36:59;7.75;;;5.57;;
46589;SDS011;32313;48.722;9.362;2022-08-18T12:39:30;6.38;;;5.75;;
46589;SDS011;32313;48.722;9.362;2022-08-18T12:41:56;6.38;;;5.78;;
46589;SDS011;32313;48.722;9.362;2022-08-18T12:44:22;7.68;;;5.65;;
46589;SDS011;32313;48.722;9.362;2022-08-18T12:46:49;5.50;;;5.10;;
46589;SDS011;32313;48.722;9.362;2022-08-18T12:49:16;5.80;;;5.25;;
46589;SDS011;32313;48.722;9.362;2022-08-18T12:51:44;5.93;;;5.22;;
46589;SDS011;32313;48.722;9.362;2022-08-18T12:54:10;5.30;;;4.90;;
46589;SDS011;32313;48.722;9.362;2022-08-18T12:56:37;5.82;;;5.32;;
46589;SDS011;32313;48.722;9.362;2022-08-18T12:59:06;5.78;;;5.28;;
46589;SDS011;32313;48.722;9.362;2022-08-18T13:01:34;6.45;;;4.90;;
46589;SDS011;32313;48.722;9.362;2022-08-18T13:04:00;5.10;;;4.70;;
46589;SDS011;32313;48.722;9.362;2022-08-18T13:06:27;7.43;;;4.65;;
46589;SDS011;32313;48.722;9.362;2022-08-18T13:08:55;5.68;;;5.18;;
46589;SDS011;32313;48.722;9.362;2022-08-18T13:11:21;5.43;;;4.93;;
46589;SDS011;32313;48.722;9.362;2022-08-18T13:13:47;6.57;;;5.40;;
46589;SDS011;32313;48.722;9.362;2022-08-18T13:16:15;6.05;;;5.55;;
46589;SDS011;32313;48.722;9.362;2022-08-18T13:18:43;6.43;;;5.25;;
46589;SDS011;32313;48.722;9.362;2022-08-18T13:21:10;5.93;;;5.38;;
46589;SDS011;32313;48.722;9.362;2022-08-18T13:23:38;6.35;;;5.85;;
46589;SDS011;32313;48.722;9.362;2022-08-18T13:26:05;5.55;;;5.15;;
46589;SDS011;32313;48.722;9.362;2022-08-18T13:28:32;6.22;;;5.55;;
46589;SDS011;32313;48.722;9.362;2022-08-18T13:30:58;5.30;;;4.90;;
46589;SDS011;32313;48.722;9.362;2022-08-18T13:33:26;5.70;;;5.10;;
46589;SDS011;32313;48.722;9.362;2022-08-18T13:35:51;5.45;;;5.05;;
46589;SDS011;32313;48.722;9.362;2022-08-18T13:38:17;6.10;;;5.60;;
46589;SDS011;32313;48.722;9.362;2022-08-18T13:40:47;9.05;;;5.90;;
46589;SDS011;32313;48.722;9.362;2022-08-18T13:43:17;5.65;;;5.22;;
46589;SDS011;32313;48.722;9.362;2022-08-18T13:45:46;6.47;;;5.88;;
46589;SDS011;32313;48.722;9.362;2022-08-18T13:48:14;6.80;;;6.13;;
46589;SDS011;32313;48.722;9.362;2022-08-18T13:50:43;5.80;;;5.15;;
46589;SDS011;32313;48.722;9.362;2022-08-18T13:53:16;6.20;;;5.60;;
46589;SDS011;32313;48.722;9.362;2022-08-18T13:55:46;7.70;;;6.07;;
46589;SDS011;32313;48.722;9.362;2022-08-18T13:58:13;5.78;;;5.38;;
46589;SDS011;32313;48.722;9.362;2022-08-18T14:00:39;7.82;;;6.38;;
46589;SDS011;32313;48.722;9.362;2022-08-18T14:03:06;5.60;;;5.10;;
46589;SDS011;32313;48.722;9.362;2022-08-18T14:05:32;6.38;;;5.88;;
46589;SDS011;32313;48.722;9.362;2022-08-18T14:07:59;6.50;;;5.97;;
46589;SDS011;32313;48.722;9.362;2022-08-18T14:10:26;5.82;;;5.30;;
46589;SDS011;32313;48.722;9.362;2022-08-18T14:12:53;5.70;;;5.30;;
46589;SDS011;32313;48.722;9.362;2022-08-18T14:15:20;6.93;;;6.15;;
46589;SDS011;32313;48.722;9.362;2022-08-18T14:17:47;5.97;;;5.47;;
46589;SDS011;32313;48.722;9.362;2022-08-18T14:20:13;6.20;;;5.70;;
46589;SDS011;32313;48.722;9.362;2022-08-18T14:22:58;6.18;;;5.68;;
46589;SDS011;32313;48.722;9.362;2022-08-18T14:25:43;6.25;;;5.63;;
46589;SDS011;32313;48.722;9.362;2022-08-18T14:28:28;6.78;;;6.07;;
46589;SDS011;32313;48.722;9.362;2022-08-18T14:30:55;6.10;;;5.57;;
46589;SDS011;32313;48.722;9.362;2022-08-18T14:33:23;6.82;;;5.47;;
46589;SDS011;32313;48.722;9.362;2022-08-18T14:35:51;6.75;;;6.20;;
46589;SDS011;32313;48.722;9.362;2022-08-18T14:38:17;7.00;;;5.68;;
46589;SDS011;32313;48.722;9.362;2022-08-18T14:40:43;6.95;;;6.20;;
46589;SDS011;32313;48.722;9.362;2022-08-18T14:43:10;6.05;;;5.55;;
46589;SDS011;32313;48.722;9.362;2022-08-18T14:45:38;5.75;;;5.25;;
46589;SDS011;32313;48.722;9.362;2022-08-18T14:48:04;7.00;;;5.85;;
46589;SDS011;32313;48.722;9.362;2022-08-18T14:50:30;7.18;;;6.30;;
46589;SDS011;32313;48.722;9.362;2022-08-18T14:52:56;6.43;;;5.80;;
46589;SDS011;32313;48.722;9.362;2022-08-18T14:55:22;7.22;;;6.45;;
46589;SDS011;32313;48.722;9.362;2022-08-18T14:57:48;5.95;;;5.45;;
46589;SDS011;32313;48.722;9.362;2022-08-18T15:00:15;5.50;;;5.00;;
46589;SDS011;32313;48.722;9.362;2022-08-18T15:02:42;5.60;;;5.10;;
46589;SDS011;32313;48.722;9.362;2022-08-18T15:05:11;6.03;;;5.53;;
46589;SDS011;32313;48.722;9.362;2022-08-18T15:07:37;6.90;;;5.40;;
46589;SDS011;32313;48.722;9.362;2022-08-18T15:10:05;5.38;;;4.97;;
46589;SDS011;32313;48.722;9.362;2022-08-18T15:12:32;6.25;;;5.65;;
46589;SDS011;32313;48.722;9.362;2022-08-18T15:14:58;6.20;;;5.70;;
46589;SDS011;32313;48.722;9.362;2022-08-18T15:17:24;5.72;;;5.32;;
46589;SDS011;32313;48.722;9.362;2022-08-18T15:19:51;6.75;;;5.80;;
46589;SDS011;32313;48.722;9.362;2022-08-18T15:22:18;6.32;;;5.82;;
46589;SDS011;32313;48.722;9.362;2022-08-18T15:25:03;7.15;;;5.55;;
46589;SDS011;32313;48.722;9.362;2022-08-18T15:28:10;5.85;;;5.43;;
46589;SDS011;32313;48.722;9.362;2022-08-18T15:30:37;6.25;;;5.68;;
46589;SDS011;32313;48.722;9.362;2022-08-18T15:33:04;6.57;;;5.97;;
46589;SDS011;32313;48.722;9.362;2022-08-18T15:35:30;6.63;;;6.03;;
46589;SDS011;32313;48.722;9.362;2022-08-18T15:37:56;6.40;;;5.80;;
46589;SDS011;32313;48.722;9.362;2022-08-18T15:40:23;6.05;;;5.53;;
46589;SDS011;32313;48.722;9.362;2022-08-18T15:42:51;6.35;;;5.78;;
46589;SDS011;32313;48.722;9.362;2022-08-18T15:45:33;6.07;;;5.47;;
46589;SDS011;32313;48.722;9.362;2022-08-18T15:48:02;7.90;;;6.32;;
46589;SDS011;32313;48.722;9.362;2022-08-18T15:50:28;6.57;;;5.97;;
46589;SDS011;32313;48.722;9.362;2022-08-18T15:52:55;6.70;;;6.10;;
46589;SDS011;32313;48.722;9.362;2022-08-18T15:55:24;6.50;;;5.90;;
46589;SDS011;32313;48.722;9.362;2022-08-18T15:57:52;6.78;;;5.60;;
46589;SDS011;32313;48.722;9.362;2022-08-18T16:00:21;6.50;;;5.85;;
46589;SDS011;32313;48.722;9.362;2022-08-18T16:02:49;5.90;;;5.40;;
46589;SDS011;32313;48.722;9.362;2022-08-18T16:05:21;6.40;;;5.90;;
46589;SDS011;32313;48.722;9.362;2022-08-18T16:07:49;5.97;;;5.47;;
46589;SDS011;32313;48.722;9.362;2022-08-18T16:10:16;6.13;;;5.72;;
46589;SDS011;32313;48.722;9.362;2022-08-18T16:12:44;8.40;;;6.53;;
46589;SDS011;32313;48.722;9.362;2022-08-18T16:15:10;6.20;;;5.60;;
46589;SDS011;32313;48.722;9.362;2022-08-18T16:17:37;7.32;;;6.38;;
46589;SDS011;32313;48.722;9.362;2022-08-18T16:20:03;5.85;;;5.28;;
46589;SDS011;32313;48.722;9.362;2022-08-18T16:22:30;6.32;;;5.72;;
46589;SDS011;32313;48.722;9.362;2022-08-18T16:24:57;6.50;;;5.93;;
46589;SDS011;32313;48.722;9.362;2022-08-18T16:27:23;7.28;;;5.68;;
46589;SDS011;32313;48.722;9.362;2022-08-18T16:29:55;7.20;;;6.57;;
46589;SDS011;32313;48.722;9.362;2022-08-18T16:32:21;6.03;;;5.43;;
46589;SDS011;32313;48.722;9.362;2022-08-18T16:34:47;7.22;;;5.47;;
46589;SDS011;32313;48.722;9.362;2022-08-18T16:37:13;6.60;;;6.00;;
46589;SDS011;32313;48.722;9.362;2022-08-18T16:39:39;7.28;;;6.20;;
46589;SDS011;32313;48.722;9.362;2022-08-18T16:42:04;9.57;;;6.43;;
46589;SDS011;32313;48.722;9.362;2022-08-18T16:44:31;7.05;;;6.45;;
46589;SDS011;32313;48.722;9.362;2022-08-18T16:46:57;7.47;;;6.17;;
46589;SDS011;32313;48.722;9.362;2022-08-18T16:49:26;7.18;;;6.57;;
46589;SDS011;32313;48.722;9.362;2022-08-18T16:51:53;8.07;;;7.17;;
46589;SDS011;32313;48.722;9.362;2022-08-18T16:54:18;10.50;;;8.00;;
46589;SDS011;32313;48.722;9.362;2022-08-18T16:56:44;8.65;;;7.78;;
46589;SDS011;32313;48.722;9.362;2022-08-18T16:59:10;9.07;;;7.40;;
46589;SDS011;32313;48.722;9.362;2022-08-18T17:01:54;8.73;;;7.10;;
46589;SDS011;32313;48.722;9.362;2022-08-18T17:04:58;7.77;;;6.60;;
46589;SDS011;32313;48.722;9.362;2022-08-18T17:07:27;7.57;;;6.93;;
46589;SDS011;32313;48.722;9.362;2022-08-18T17:09:54;6.17;;;5.73;;
46589;SDS011;32313;48.722;9.362;2022-08-18T17:12:21;6.63;;;6.03;;
46589;SDS011;32313;48.722;9.362;2022-08-18T17:14:47;6.80;;;6.20;;
46589;SDS011;32313;48.722;9.362;2022-08-18T17:17:13;6.57;;;6.00;;
46589;SDS011;32313;48.722;9.362;2022-08-18T17:19:41;7.00;;;6.30;;
46589;SDS011;32313;48.722;9.362;2022-08-18T17:22:08;6.70;;;6.03;;
46589;SDS011;32313;48.722;9.362;2022-08-18T17:24:33;8.00;;;6.80;;
46589;SDS011;32313;48.722;9.362;2022-08-18T17:29:36;6.90;;;6.20;;
46589;SDS011;32313;48.722;9.362;2022-08-18T17:32:21;8.07;;;6.13;;